createdAt,value
2023-02-09T00:02:57.784Z,1033.37
2023-02-09T00:17:58.843Z,1033.17
2023-02-09T00:32:58.967Z,1032.96
2023-02-09T00:47:59.539Z,1032.89
2023-02-09T01:02:59.723Z,1032.88
2023-02-09T01:18:00.382Z,1032.91
2023-02-09T01:33:00.955Z,1032.61
2023-02-09T01:48:01.705Z,1032.25
2023-02-09T02:03:01.927Z,1032.09
2023-02-09T02:18:02.534Z,1031.79
2023-02-09T02:33:03.064Z,1031.66
2023-02-09T02:48:03.264Z,1031.50
2023-02-09T03:03:03.882Z,1031.44
2023-02-09T03:18:04.123Z,1031.34
2023-02-09T03:33:05.047Z,1031.12
2023-02-09T03:48:05.293Z,1031.04
2023-02-09T04:03:05.877Z,1030.87
2023-02-09T04:18:06.198Z,1030.79
2023-02-09T04:33:06.725Z,1030.67
2023-02-09T04:48:07.771Z,1030.59
2023-02-09T05:03:08.452Z,1030.52
2023-02-09T05:18:09.557Z,1030.55
2023-02-09T05:33:10.573Z,1030.50
2023-02-09T05:48:10.798Z,1030.38
2023-02-09T06:03:11.460Z,1030.39
2023-02-09T06:18:12.525Z,1030.47
2023-02-09T06:33:13.598Z,1030.45
2023-02-09T06:48:14.702Z,1030.51
2023-02-09T07:03:15.828Z,1030.68
2023-02-09T07:18:16.462Z,1030.60
2023-02-09T07:33:17.063Z,1030.56
2023-02-09T07:48:17.808Z,1030.58
2023-02-09T08:03:18.288Z,1030.44
2023-02-09T08:18:19.337Z,1030.54
2023-02-09T08:33:19.933Z,1030.58
2023-02-09T08:48:20.166Z,1030.32
2023-02-09T09:03:21.177Z,1030.33
2023-02-09T09:18:21.352Z,1030.06
2023-02-09T09:33:21.974Z,1029.68
2023-02-09T09:48:23.002Z,1029.54
2023-02-09T10:03:23.151Z,1029.90
2023-02-09T10:18:24.216Z,1029.69
2023-02-09T10:33:24.754Z,1029.41
2023-02-09T10:48:25.412Z,1029.24
2023-02-09T11:03:25.586Z,1029.36
2023-02-09T11:18:26.207Z,1029.26
2023-02-09T11:33:26.770Z,1029.03
2023-02-09T11:48:27.383Z,1028.85
2023-02-09T12:03:27.964Z,1028.82
2023-02-09T12:18:28.564Z,1028.72
2023-02-09T12:33:29.152Z,1028.67
2023-02-09T12:48:29.774Z,1028.69
2023-02-09T13:03:30.906Z,1028.85
2023-02-09T13:18:31.967Z,1028.53
2023-02-09T13:33:32.560Z,1028.18
2023-02-09T13:48:33.187Z,1028.35
2023-02-09T14:03:33.767Z,1028.34
2023-02-09T14:18:34.369Z,1028.62
2023-02-09T14:33:34.958Z,1028.45
2023-02-09T14:48:35.551Z,1028.34
2023-02-09T15:03:36.566Z,1028.29
2023-02-09T15:18:37.791Z,1028.11
2023-02-09T15:33:39.372Z,1027.90
2023-02-09T15:48:39.956Z,1027.93
2023-02-09T16:03:40.549Z,1027.82
2023-02-09T16:18:42.600Z,1027.91
2023-02-09T16:33:43.172Z,1028.04
2023-02-09T16:48:43.381Z,1028.03
2023-02-09T17:03:43.978Z,1028.03
2023-02-09T17:18:44.595Z,1028.18
2023-02-09T17:33:45.202Z,1028.11
2023-02-09T17:48:46.233Z,1028.18
2023-02-09T18:03:46.822Z,1028.29
2023-02-09T18:18:47.025Z,1028.34
2023-02-09T18:33:47.651Z,1028.25
2023-02-09T18:48:48.260Z,1028.26
2023-02-09T19:03:48.830Z,1028.08
2023-02-09T19:18:49.872Z,1028.15
2023-02-09T19:33:50.486Z,1028.28
2023-02-09T19:48:50.688Z,1028.29
2023-02-09T20:03:51.304Z,1028.07
2023-02-09T20:18:51.959Z,1028.11
2023-02-09T20:33:53.510Z,1028.10
2023-02-09T20:48:53.946Z,1028.02
2023-02-09T21:03:54.355Z,1028.12
2023-02-09T21:18:54.980Z,1028.32
2023-02-09T21:33:56.918Z,1028.40
2023-02-09T21:48:58.512Z,1028.27
2023-02-09T22:03:59.558Z,1028.47
2023-02-09T22:19:00.181Z,1028.71
2023-02-09T22:34:00.897Z,1028.72
2023-02-09T22:49:01.976Z,1028.67
2023-02-09T23:04:02.648Z,1028.71
2023-02-09T23:19:03.227Z,1028.67
2023-02-09T23:34:04.275Z,1028.79
2023-02-09T23:49:04.856Z,1028.84
